sensor_id;sensor_type;location;lat;lon;timestamp;pressure;altitude;pressure_sealevel;temperature;humidity
63306;BME280;50735;52.060;1.248;2022-10-17T00:01:13;100798.40;;;13.14;72.72
63306;BME280;50735;52.060;1.248;2022-10-17T00:03:40;100797.75;;;13.44;72.37
63306;BME280;50735;52.060;1.248;2022-10-17T00:06:10;100802.78;;;12.92;72.48
63306;BME280;50735;52.060;1.248;2022-10-17T00:08:38;100813.49;;;12.95;72.69
63306;BME280;50735;52.060;1.248;2022-10-17T00:11:12;100825.63;;;13.49;71.53
63306;BME280;50735;52.060;1.248;2022-10-17T00:13:39;100826.26;;;13.45;71.51
63306;BME280;50735;52.060;1.248;2022-10-17T00:16:07;100833.71;;;13.50;71.32
63306;BME280;50735;52.060;1.248;2022-10-17T00:18:34;100825.40;;;13.28;72.04
63306;BME280;50735;52.060;1.248;2022-10-17T00:21:00;100832.98;;;13.45;71.77
63306;BME280;50735;52.060;1.248;2022-10-17T00:23:27;100824.10;;;13.71;71.52
63306;BME280;50735;52.060;1.248;2022-10-17T00:25:58;100821.84;;;13.57;71.41
63306;BME280;50735;52.060;1.248;2022-10-17T00:28:25;100831.88;;;13.56;72.30
63306;BME280;50735;52.060;1.248;2022-10-17T00:30:55;100844.15;;;13.69;71.35
63306;BME280;50735;52.060;1.248;2022-10-17T00:33:22;100846.63;;;13.90;70.76
63306;BME280;50735;52.060;1.248;2022-10-17T00:35:48;100833.60;;;14.07;70.12
63306;BME280;50735;52.060;1.248;2022-10-17T00:38:15;100837.62;;;14.13;69.93
63306;BME280;50735;52.060;1.248;2022-10-17T00:40:41;100834.83;;;13.98;70.60
63306;BME280;50735;52.060;1.248;2022-10-17T00:43:14;100827.75;;;13.68;70.67
63306;BME280;50735;52.060;1.248;2022-10-17T00:45:42;100833.11;;;13.84;70.94
63306;BME280;50735;52.060;1.248;2022-10-17T00:48:10;100830.78;;;13.65;71.32
63306;BME280;50735;52.060;1.248;2022-10-17T00:50:39;100833.51;;;13.59;71.51
63306;BME280;50735;52.060;1.248;2022-10-17T00:53:08;100827.59;;;13.72;71.07
63306;BME280;50735;52.060;1.248;2022-10-17T00:55:38;100838.47;;;13.68;71.38
63306;BME280;50735;52.060;1.248;2022-10-17T00:58:08;100837.52;;;13.63;71.50
63306;BME280;50735;52.060;1.248;2022-10-17T01:00:35;100837.55;;;13.54;70.62
63306;BME280;50735;52.060;1.248;2022-10-17T01:03:02;100844.35;;;13.80;71.18
63306;BME280;50735;52.060;1.248;2022-10-17T01:05:29;100841.78;;;13.73;70.97
63306;BME280;50735;52.060;1.248;2022-10-17T01:07:56;100843.79;;;13.89;71.00
63306;BME280;50735;52.060;1.248;2022-10-17T01:10:31;100844.49;;;14.17;70.05
63306;BME280;50735;52.060;1.248;2022-10-17T01:13:07;100839.43;;;14.17;69.66
63306;BME280;50735;52.060;1.248;2022-10-17T01:15:44;100833.43;;;14.38;69.57
63306;BME280;50735;52.060;1.248;2022-10-17T01:18:25;100833.11;;;14.29;69.77
63306;BME280;50735;52.060;1.248;2022-10-17T01:21:14;100824.01;;;14.28;69.29
63306;BME280;50735;52.060;1.248;2022-10-17T01:24:04;100827.55;;;14.29;69.91
63306;BME280;50735;52.060;1.248;2022-10-17T01:26:47;100834.00;;;14.31;69.67
63306;BME280;50735;52.060;1.248;2022-10-17T01:29:30;100840.68;;;14.18;69.61
63306;BME280;50735;52.060;1.248;2022-10-17T01:32:01;100848.17;;;14.03;69.44
63306;BME280;50735;52.060;1.248;2022-10-17T01:34:32;100849.17;;;14.47;69.05
63306;BME280;50735;52.060;1.248;2022-10-17T01:37:04;100840.84;;;14.19;68.83
63306;BME280;50735;52.060;1.248;2022-10-17T01:39:40;100836.44;;;14.29;69.12
63306;BME280;50735;52.060;1.248;2022-10-17T01:42:14;100844.08;;;14.11;69.69
63306;BME280;50735;52.060;1.248;2022-10-17T01:44:47;100840.08;;;14.03;69.49
63306;BME280;50735;52.060;1.248;2022-10-17T01:47:18;100839.11;;;14.43;68.66
63306;BME280;50735;52.060;1.248;2022-10-17T01:49:48;100836.56;;;14.19;68.69
63306;BME280;50735;52.060;1.248;2022-10-17T01:52:19;100844.02;;;14.02;70.19
63306;BME280;50735;52.060;1.248;2022-10-17T01:54:52;100835.74;;;13.96;69.71
63306;BME280;50735;52.060;1.248;2022-10-17T01:57:24;100830.34;;;13.98;69.87
63306;BME280;50735;52.060;1.248;2022-10-17T01:59:54;100828.06;;;14.32;69.23
63306;BME280;50735;52.060;1.248;2022-10-17T02:02:22;100823.40;;;14.64;68.11
63306;BME280;50735;52.060;1.248;2022-10-17T02:04:51;100818.52;;;14.37;68.47
63306;BME280;50735;52.060;1.248;2022-10-17T02:07:18;100816.05;;;14.63;68.09
63306;BME280;50735;52.060;1.248;2022-10-17T02:09:45;100816.86;;;14.60;68.22
63306;BME280;50735;52.060;1.248;2022-10-17T02:12:29;100807.54;;;14.47;68.20
63306;BME280;50735;52.060;1.248;2022-10-17T02:15:10;100810.08;;;14.47;68.10
63306;BME280;50735;52.060;1.248;2022-10-17T02:17:48;100812.19;;;14.52;67.82
63306;BME280;50735;52.060;1.248;2022-10-17T02:20:22;100807.53;;;14.59;68.23
63306;BME280;50735;52.060;1.248;2022-10-17T02:22:56;100804.60;;;14.38;68.44
63306;BME280;50735;52.060;1.248;2022-10-17T02:25:32;100804.10;;;14.72;68.44
63306;BME280;50735;52.060;1.248;2022-10-17T02:28:07;100808.41;;;14.83;68.25
63306;BME280;50735;52.060;1.248;2022-10-17T02:30:41;100809.70;;;14.62;68.81
63306;BME280;50735;52.060;1.248;2022-10-17T02:33:12;100809.04;;;14.59;68.18
63306;BME280;50735;52.060;1.248;2022-10-17T02:35:44;100806.45;;;14.49;68.55
63306;BME280;50735;52.060;1.248;2022-10-17T02:38:13;100809.02;;;14.53;68.31
63306;BME280;50735;52.060;1.248;2022-10-17T02:40:40;100808.93;;;14.37;68.32
63306;BME280;50735;52.060;1.248;2022-10-17T02:43:08;100807.52;;;14.33;69.58
63306;BME280;50735;52.060;1.248;2022-10-17T02:45:36;100807.85;;;13.90;69.80
63306;BME280;50735;52.060;1.248;2022-10-17T02:48:07;100820.31;;;13.91;69.92
63306;BME280;50735;52.060;1.248;2022-10-17T02:50:42;100819.24;;;14.33;69.66
63306;BME280;50735;52.060;1.248;2022-10-17T02:53:14;100833.51;;;14.19;69.58
63306;BME280;50735;52.060;1.248;2022-10-17T02:55:47;100845.12;;;14.14;70.35
63306;BME280;50735;52.060;1.248;2022-10-17T02:58:19;100859.55;;;14.10;70.55
63306;BME280;50735;52.060;1.248;2022-10-17T03:00:47;100852.66;;;13.95;71.02
63306;BME280;50735;52.060;1.248;2022-10-17T03:03:19;100853.05;;;14.14;70.42
63306;BME280;50735;52.060;1.248;2022-10-17T03:05:46;100858.21;;;14.12;70.29
63306;BME280;50735;52.060;1.248;2022-10-17T03:08:13;100864.44;;;14.08;69.86
63306;BME280;50735;52.060;1.248;2022-10-17T03:10:40;100862.02;;;14.31;69.70
63306;BME280;50735;52.060;1.248;2022-10-17T03:13:07;100868.64;;;14.38;69.30
63306;BME280;50735;52.060;1.248;2022-10-17T03:15:33;100875.49;;;14.04;69.85
63306;BME280;50735;52.060;1.248;2022-10-17T03:18:00;100871.93;;;14.01;69.75
63306;BME280;50735;52.060;1.248;2022-10-17T03:20:26;100873.12;;;13.90;69.50
63306;BME280;50735;52.060;1.248;2022-10-17T03:22:53;100877.57;;;14.19;69.57
63306;BME280;50735;52.060;1.248;2022-10-17T03:25:20;100888.35;;;14.31;68.74
63306;BME280;50735;52.060;1.248;2022-10-17T03:27:46;100890.66;;;13.92;69.24
63306;BME280;50735;52.060;1.248;2022-10-17T03:30:14;100895.02;;;14.29;68.85
63306;BME280;50735;52.060;1.248;2022-10-17T03:32:41;100892.02;;;13.91;69.45
63306;BME280;50735;52.060;1.248;2022-10-17T03:35:07;100894.38;;;14.32;69.01
63306;BME280;50735;52.060;1.248;2022-10-17T03:37:35;100891.47;;;14.08;68.81
63306;BME280;50735;52.060;1.248;2022-10-17T03:40:01;100892.14;;;14.28;68.70
63306;BME280;50735;52.060;1.248;2022-10-17T03:42:30;100899.52;;;14.44;68.23
63306;BME280;50735;52.060;1.248;2022-10-17T03:44:57;100894.36;;;14.43;68.20
63306;BME280;50735;52.060;1.248;2022-10-17T03:47:23;100898.22;;;14.49;67.85
63306;BME280;50735;52.060;1.248;2022-10-17T03:49:51;100897.75;;;14.08;68.04
63306;BME280;50735;52.060;1.248;2022-10-17T03:52:17;100903.02;;;14.13;67.99
63306;BME280;50735;52.060;1.248;2022-10-17T03:54:44;100900.92;;;14.17;68.20
63306;BME280;50735;52.060;1.248;2022-10-17T03:57:11;100892.17;;;14.18;68.18
63306;BME280;50735;52.060;1.248;2022-10-17T03:59:37;100892.86;;;14.28;67.74
63306;BME280;50735;52.060;1.248;2022-10-17T04:02:04;100894.29;;;14.31;68.28
63306;BME280;50735;52.060;1.248;2022-10-17T04:04:31;100889.42;;;14.10;68.11
63306;BME280;50735;52.060;1.248;2022-10-17T04:06:58;100881.38;;;13.95;67.98
63306;BME280;50735;52.060;1.248;2022-10-17T04:09:24;100880.66;;;14.06;67.86
63306;BME280;50735;52.060;1.248;2022-10-17T04:11:51;100877.60;;;14.25;67.76
63306;BME280;50735;52.060;1.248;2022-10-17T04:14:18;100885.96;;;14.55;67.32
63306;BME280;50735;52.060;1.248;2022-10-17T04:16:45;100886.67;;;14.37;67.18
63306;BME280;50735;52.060;1.248;2022-10-17T04:19:13;100881.27;;;14.37;66.62
63306;BME280;50735;52.060;1.248;2022-10-17T04:21:40;100895.73;;;14.74;66.77
63306;BME280;50735;52.060;1.248;2022-10-17T04:24:09;100913.38;;;14.64;66.72
63306;BME280;50735;52.060;1.248;2022-10-17T04:26:37;100910.19;;;13.95;68.00
63306;BME280;50735;52.060;1.248;2022-10-17T04:29:04;100913.87;;;14.31;67.47
63306;BME280;50735;52.060;1.248;2022-10-17T04:31:30;100907.89;;;14.28;67.43
63306;BME280;50735;52.060;1.248;2022-10-17T04:33:57;100909.23;;;14.33;67.77
63306;BME280;50735;52.060;1.248;2022-10-17T04:36:23;100905.84;;;14.17;67.24
63306;BME280;50735;52.060;1.248;2022-10-17T04:38:50;100902.56;;;14.22;67.68
63306;BME280;50735;52.060;1.248;2022-10-17T04:41:17;100905.46;;;14.18;68.27
63306;BME280;50735;52.060;1.248;2022-10-17T04:43:44;100906.33;;;14.17;67.84
63306;BME280;50735;52.060;1.248;2022-10-17T04:46:13;100911.28;;;14.55;67.19
63306;BME280;50735;52.060;1.248;2022-10-17T04:48:41;100904.88;;;14.18;67.11
63306;BME280;50735;52.060;1.248;2022-10-17T04:51:11;100904.03;;;14.31;67.11
63306;BME280;50735;52.060;1.248;2022-10-17T04:53:39;100904.00;;;14.17;67.04
63306;BME280;50735;52.060;1.248;2022-10-17T04:56:07;100913.25;;;14.54;67.08
63306;BME280;50735;52.060;1.248;2022-10-17T04:58:35;100917.02;;;14.02;67.43
63306;BME280;50735;52.060;1.248;2022-10-17T05:01:04;100921.08;;;14.19;67.26
63306;BME280;50735;52.060;1.248;2022-10-17T05:03:31;100924.44;;;14.13;68.16
63306;BME280;50735;52.060;1.248;2022-10-17T05:05:58;100927.55;;;14.04;67.79
63306;BME280;50735;52.060;1.248;2022-10-17T05:08:24;100930.55;;;14.41;67.18
63306;BME280;50735;52.060;1.248;2022-10-17T05:10:51;100933.15;;;14.13;68.01
63306;BME280;50735;52.060;1.248;2022-10-17T05:13:18;100937.81;;;14.14;67.83
63306;BME280;50735;52.060;1.248;2022-10-17T05:15:44;100945.11;;;13.77;68.37
63306;BME280;50735;52.060;1.248;2022-10-17T05:18:11;100937.00;;;13.65;68.88
63306;BME280;50735;52.060;1.248;2022-10-17T05:20:38;100933.34;;;13.80;68.25
63306;BME280;50735;52.060;1.248;2022-10-17T05:23:05;100921.09;;;14.06;67.95
63306;BME280;50735;52.060;1.248;2022-10-17T05:25:32;100921.72;;;13.97;67.86
63306;BME280;50735;52.060;1.248;2022-10-17T05:27:59;100917.30;;;14.20;67.64
63306;BME280;50735;52.060;1.248;2022-10-17T05:30:26;100926.83;;;14.00;67.51
63306;BME280;50735;52.060;1.248;2022-10-17T05:32:53;100931.20;;;14.22;67.31
63306;BME280;50735;52.060;1.248;2022-10-17T05:35:22;100939.97;;;14.02;67.52
63306;BME280;50735;52.060;1.248;2022-10-17T05:37:49;100935.55;;;13.87;67.41
63306;BME280;50735;52.060;1.248;2022-10-17T05:40:16;100932.44;;;14.35;67.01
63306;BME280;50735;52.060;1.248;2022-10-17T05:42:45;100929.91;;;14.52;66.52
63306;BME280;50735;52.060;1.248;2022-10-17T05:45:12;100940.85;;;14.03;66.80
63306;BME280;50735;52.060;1.248;2022-10-17T05:47:39;100952.08;;;14.44;66.70
63306;BME280;50735;52.060;1.248;2022-10-17T05:50:07;100952.94;;;14.47;66.71
63306;BME280;50735;52.060;1.248;2022-10-17T05:52:34;100954.39;;;14.03;66.77
63306;BME280;50735;52.060;1.248;2022-10-17T05:55:02;100962.23;;;14.16;66.13
63306;BME280;50735;52.060;1.248;2022-10-17T05:57:29;100963.94;;;14.41;66.01
63306;BME280;50735;52.060;1.248;2022-10-17T05:59:55;100968.75;;;14.37;66.65
63306;BME280;50735;52.060;1.248;2022-10-17T06:02:22;100982.03;;;14.10;66.27
63306;BME280;50735;52.060;1.248;2022-10-17T06:04:50;100984.61;;;14.49;66.11
63306;BME280;50735;52.060;1.248;2022-10-17T06:07:17;101000.73;;;14.31;66.80
63306;BME280;50735;52.060;1.248;2022-10-17T06:09:44;101011.42;;;14.18;66.46
63306;BME280;50735;52.060;1.248;2022-10-17T06:12:11;101015.68;;;14.07;66.69
63306;BME280;50735;52.060;1.248;2022-10-17T06:14:37;101025.68;;;14.24;66.77
63306;BME280;50735;52.060;1.248;2022-10-17T06:17:04;101031.10;;;14.47;66.22
63306;BME280;50735;52.060;1.248;2022-10-17T06:19:31;101037.84;;;14.05;67.27
63306;BME280;50735;52.060;1.248;2022-10-17T06:21:58;101046.59;;;14.16;67.27
63306;BME280;50735;52.060;1.248;2022-10-17T06:24:25;101056.06;;;13.96;67.78
63306;BME280;50735;52.060;1.248;2022-10-17T06:26:52;101063.32;;;13.72;68.06
63306;BME280;50735;52.060;1.248;2022-10-17T06:29:19;101068.51;;;14.12;67.40
63306;BME280;50735;52.060;1.248;2022-10-17T06:31:46;101080.56;;;14.13;67.55
63306;BME280;50735;52.060;1.248;2022-10-17T06:34:12;101089.42;;;14.35;67.46
63306;BME280;50735;52.060;1.248;2022-10-17T06:36:39;101089.79;;;14.34;66.96
63306;BME280;50735;52.060;1.248;2022-10-17T06:39:05;101096.78;;;13.95;66.90
63306;BME280;50735;52.060;1.248;2022-10-17T06:41:32;101100.58;;;13.85;68.15
63306;BME280;50735;52.060;1.248;2022-10-17T06:43:59;101104.49;;;14.19;68.11
63306;BME280;50735;52.060;1.248;2022-10-17T06:46:25;101113.80;;;13.71;68.68
63306;BME280;50735;52.060;1.248;2022-10-17T06:48:52;101116.66;;;13.80;67.91
63306;BME280;50735;52.060;1.248;2022-10-17T06:51:18;101121.63;;;13.84;68.22
63306;BME280;50735;52.060;1.248;2022-10-17T06:53:45;101126.49;;;13.97;67.89
63306;BME280;50735;52.060;1.248;2022-10-17T06:56:12;101134.54;;;13.98;68.13
63306;BME280;50735;52.060;1.248;2022-10-17T06:58:39;101151.64;;;13.73;68.13
63306;BME280;50735;52.060;1.248;2022-10-17T07:01:09;101146.92;;;14.04;67.76
63306;BME280;50735;52.060;1.248;2022-10-17T07:03:36;101153.70;;;14.09;67.50
63306;BME280;50735;52.060;1.248;2022-10-17T07:06:03;101165.42;;;13.62;68.51
63306;BME280;50735;52.060;1.248;2022-10-17T07:08:30;101177.08;;;14.06;67.55
63306;BME280;50735;52.060;1.248;2022-10-17T07:10:58;101177.58;;;14.21;67.25
63306;BME280;50735;52.060;1.248;2022-10-17T07:13:33;101187.07;;;14.28;67.00
63306;BME280;50735;52.060;1.248;2022-10-17T07:16:00;101197.75;;;14.04;67.66
63306;BME280;50735;52.060;1.248;2022-10-17T07:18:27;101193.71;;;13.80;68.52
63306;BME280;50735;52.060;1.248;2022-10-17T07:20:54;101202.37;;;13.90;68.29
63306;BME280;50735;52.060;1.248;2022-10-17T07:23:21;101206.52;;;13.64;68.21
63306;BME280;50735;52.060;1.248;2022-10-17T07:25:49;101204.84;;;13.98;68.20
63306;BME280;50735;52.060;1.248;2022-10-17T07:28:16;101209.87;;;13.60;68.86
63306;BME280;50735;52.060;1.248;2022-10-17T07:30:43;101209.36;;;13.87;68.73
63306;BME280;50735;52.060;1.248;2022-10-17T07:33:09;101208.55;;;13.72;69.02
63306;BME280;50735;52.060;1.248;2022-10-17T07:35:37;101209.30;;;13.79;68.99
63306;BME280;50735;52.060;1.248;2022-10-17T07:38:04;101213.54;;;13.86;68.91
63306;BME280;50735;52.060;1.248;2022-10-17T07:40:30;101210.80;;;13.81;68.79
63306;BME280;50735;52.060;1.248;2022-10-17T07:42:57;101217.02;;;14.03;68.64
63306;BME280;50735;52.060;1.248;2022-10-17T07:45:23;101221.44;;;13.97;68.65
63306;BME280;50735;52.060;1.248;2022-10-17T07:47:50;101225.19;;;13.85;69.05
63306;BME280;50735;52.060;1.248;2022-10-17T07:50:17;101226.69;;;13.76;69.32
63306;BME280;50735;52.060;1.248;2022-10-17T07:52:44;101231.63;;;13.52;69.02
63306;BME280;50735;52.060;1.248;2022-10-17T07:55:10;101230.90;;;13.78;69.49
63306;BME280;50735;52.060;1.248;2022-10-17T07:57:37;101233.84;;;13.97;68.96
63306;BME280;50735;52.060;1.248;2022-10-17T08:00:05;101234.14;;;13.93;69.12
63306;BME280;50735;52.060;1.248;2022-10-17T08:02:31;101235.76;;;14.05;68.76
63306;BME280;50735;52.060;1.248;2022-10-17T08:04:58;101237.80;;;14.12;68.21
63306;BME280;50735;52.060;1.248;2022-10-17T08:07:24;101241.91;;;14.34;68.01
63306;BME280;50735;52.060;1.248;2022-10-17T08:09:51;101244.60;;;14.39;68.00
63306;BME280;50735;52.060;1.248;2022-10-17T08:12:18;101248.16;;;14.46;67.76
63306;BME280;50735;52.060;1.248;2022-10-17T08:14:44;101253.96;;;14.19;67.51
63306;BME280;50735;52.060;1.248;2022-10-17T08:17:11;101259.87;;;13.89;68.48
63306;BME280;50735;52.060;1.248;2022-10-17T08:19:38;101256.49;;;14.59;67.67
63306;BME280;50735;52.060;1.248;2022-10-17T08:22:06;101264.37;;;14.24;68.50
63306;BME280;50735;52.060;1.248;2022-10-17T08:24:33;101273.50;;;14.14;68.18
63306;BME280;50735;52.060;1.248;2022-10-17T08:27:00;101275.08;;;14.42;68.26
63306;BME280;50735;52.060;1.248;2022-10-17T08:29:28;101275.86;;;14.42;68.31
63306;BME280;50735;52.060;1.248;2022-10-17T08:31:55;101278.15;;;14.33;67.91
63306;BME280;50735;52.060;1.248;2022-10-17T08:34:21;101278.70;;;14.56;67.80
63306;BME280;50735;52.060;1.248;2022-10-17T08:36:48;101269.30;;;14.63;67.73
63306;BME280;50735;52.060;1.248;2022-10-17T08:39:15;101282.65;;;14.40;67.72
63306;BME280;50735;52.060;1.248;2022-10-17T08:41:52;101290.87;;;14.08;68.36
63306;BME280;50735;52.060;1.248;2022-10-17T08:44:34;101300.34;;;14.31;67.98
63306;BME280;50735;52.060;1.248;2022-10-17T08:47:09;101297.47;;;14.36;68.61
63306;BME280;50735;52.060;1.248;2022-10-17T08:49:41;101302.34;;;14.12;68.12
63306;BME280;50735;52.060;1.248;2022-10-17T08:52:15;101299.74;;;14.18;68.46
63306;BME280;50735;52.060;1.248;2022-10-17T08:54:47;101306.14;;;14.45;68.19
63306;BME280;50735;52.060;1.248;2022-10-17T08:57:16;101312.14;;;14.07;69.05
63306;BME280;50735;52.060;1.248;2022-10-17T08:59:44;101313.97;;;13.89;68.87
63306;BME280;50735;52.060;1.248;2022-10-17T09:02:27;101316.75;;;13.97;68.77
63306;BME280;50735;52.060;1.248;2022-10-17T09:05:14;101316.17;;;14.37;68.46
63306;BME280;50735;52.060;1.248;2022-10-17T09:07:50;101324.60;;;14.14;69.27
63306;BME280;50735;52.060;1.248;2022-10-17T09:10:27;101330.17;;;13.94;69.35
63306;BME280;50735;52.060;1.248;2022-10-17T09:13:08;101331.92;;;13.92;69.51
63306;BME280;50735;52.060;1.248;2022-10-17T09:15:48;101341.74;;;14.32;68.61
63306;BME280;50735;52.060;1.248;2022-10-17T09:18:24;101353.48;;;14.49;68.62
63306;BME280;50735;52.060;1.248;2022-10-17T09:20:55;101351.07;;;14.03;69.02
63306;BME280;50735;52.060;1.248;2022-10-17T09:23:27;101354.88;;;14.08;68.85
63306;BME280;50735;52.060;1.248;2022-10-17T09:25:58;101364.46;;;14.28;68.97
63306;BME280;50735;52.060;1.248;2022-10-17T09:28:29;101368.96;;;14.22;68.31
63306;BME280;50735;52.060;1.248;2022-10-17T09:31:00;101368.93;;;14.33;68.18
63306;BME280;50735;52.060;1.248;2022-10-17T09:33:31;101370.52;;;14.33;68.01
63306;BME280;50735;52.060;1.248;2022-10-17T09:36:02;101373.55;;;14.40;67.54
63306;BME280;50735;52.060;1.248;2022-10-17T09:38:36;101378.41;;;14.39;67.75
63306;BME280;50735;52.060;1.248;2022-10-17T09:41:10;101376.21;;;14.65;67.08
63306;BME280;50735;52.060;1.248;2022-10-17T09:43:39;101380.40;;;15.18;66.92
63306;BME280;50735;52.060;1.248;2022-10-17T09:46:09;101382.51;;;14.69;66.86
63306;BME280;50735;52.060;1.248;2022-10-17T09:48:41;101383.12;;;14.86;66.63
63306;BME280;50735;52.060;1.248;2022-10-17T09:51:09;101386.61;;;14.77;66.51
63306;BME280;50735;52.060;1.248;2022-10-17T09:53:38;101389.98;;;14.84;66.26
63306;BME280;50735;52.060;1.248;2022-10-17T09:56:10;101395.24;;;14.92;66.41
63306;BME280;50735;52.060;1.248;2022-10-17T09:58:39;101391.63;;;15.10;65.82
63306;BME280;50735;52.060;1.248;2022-10-17T10:01:17;101389.60;;;15.16;65.17
63306;BME280;50735;52.060;1.248;2022-10-17T10:03:44;101388.84;;;15.21;64.64
63306;BME280;50735;52.060;1.248;2022-10-17T10:06:13;101393.82;;;15.12;64.33
63306;BME280;50735;52.060;1.248;2022-10-17T10:08:50;101399.54;;;15.17;64.41
63306;BME280;50735;52.060;1.248;2022-10-17T10:11:18;101403.77;;;15.58;64.16
63306;BME280;50735;52.060;1.248;2022-10-17T10:13:49;101409.05;;;15.64;63.12
63306;BME280;50735;52.060;1.248;2022-10-17T10:16:19;101414.68;;;15.16;62.00
63306;BME280;50735;52.060;1.248;2022-10-17T10:18:47;101419.44;;;14.92;62.18
63306;BME280;50735;52.060;1.248;2022-10-17T10:21:17;101436.05;;;14.78;61.59
63306;BME280;50735;52.060;1.248;2022-10-17T10:23:45;101440.05;;;15.06;61.10
63306;BME280;50735;52.060;1.248;2022-10-17T10:26:33;101452.58;;;14.97;62.06
63306;BME280;50735;52.060;1.248;2022-10-17T10:29:03;101464.81;;;14.74;60.70
63306;BME280;50735;52.060;1.248;2022-10-17T10:31:34;101467.36;;;14.98;60.45
63306;BME280;50735;52.060;1.248;2022-10-17T10:34:13;101480.13;;;14.96;60.79
63306;BME280;50735;52.060;1.248;2022-10-17T10:36:43;101484.13;;;14.83;58.78
63306;BME280;50735;52.060;1.248;2022-10-17T10:39:24;101491.55;;;15.15;59.54
63306;BME280;50735;52.060;1.248;2022-10-17T10:41:52;101490.90;;;15.07;59.27
63306;BME280;50735;52.060;1.248;2022-10-17T10:44:22;101490.63;;;14.94;58.05
63306;BME280;50735;52.060;1.248;2022-10-17T10:47:05;101489.47;;;14.58;58.69
63306;BME280;50735;52.060;1.248;2022-10-17T10:49:32;101493.31;;;15.14;58.41
63306;BME280;50735;52.060;1.248;2022-10-17T10:52:00;101501.63;;;14.81;57.89
63306;BME280;50735;52.060;1.248;2022-10-17T10:54:32;101501.97;;;14.81;57.63
63306;BME280;50735;52.060;1.248;2022-10-17T10:57:05;101502.16;;;15.43;57.24
63306;BME280;50735;52.060;1.248;2022-10-17T10:59:39;101511.44;;;15.92;56.31
63306;BME280;50735;52.060;1.248;2022-10-17T11:02:12;101514.23;;;16.34;54.52
63306;BME280;50735;52.060;1.248;2022-10-17T11:04:45;101514.74;;;16.85;52.90
63306;BME280;50735;52.060;1.248;2022-10-17T11:07:17;101512.92;;;17.28;50.65
63306;BME280;50735;52.060;1.248;2022-10-17T11:09:52;101526.01;;;17.53;50.10
63306;BME280;50735;52.060;1.248;2022-10-17T11:12:26;101528.28;;;17.31;48.48
63306;BME280;50735;52.060;1.248;2022-10-17T11:14:57;101537.25;;;17.06;47.75
63306;BME280;50735;52.060;1.248;2022-10-17T11:17:33;101536.31;;;16.95;47.45
63306;BME280;50735;52.060;1.248;2022-10-17T11:20:09;101540.89;;;17.54;48.78
63306;BME280;50735;52.060;1.248;2022-10-17T11:22:40;101544.17;;;17.61;48.55
63306;BME280;50735;52.060;1.248;2022-10-17T11:25:19;101544.81;;;17.35;47.88
63306;BME280;50735;52.060;1.248;2022-10-17T11:27:48;101549.11;;;17.85;47.71
63306;BME280;50735;52.060;1.248;2022-10-17T11:30:15;101550.82;;;18.36;47.22
63306;BME280;50735;52.060;1.248;2022-10-17T11:32:45;101554.60;;;18.43;45.25
63306;BME280;50735;52.060;1.248;2022-10-17T11:35:19;101557.81;;;18.61;45.11
63306;BME280;50735;52.060;1.248;2022-10-17T11:37:50;101557.53;;;17.96;44.63
63306;BME280;50735;52.060;1.248;2022-10-17T11:40:24;101565.55;;;17.69;45.07
63306;BME280;50735;52.060;1.248;2022-10-17T11:42:56;101560.13;;;18.24;45.38
63306;BME280;50735;52.060;1.248;2022-10-17T11:45:27;101564.20;;;17.91;44.48
63306;BME280;50735;52.060;1.248;2022-10-17T11:47:59;101565.81;;;18.49;44.13
63306;BME280;50735;52.060;1.248;2022-10-17T11:50:29;101567.61;;;18.24;44.40
63306;BME280;50735;52.060;1.248;2022-10-17T11:53:00;101572.45;;;18.39;44.15
63306;BME280;50735;52.060;1.248;2022-10-17T11:55:30;101575.75;;;18.61;44.33
63306;BME280;50735;52.060;1.248;2022-10-17T11:58:14;101582.42;;;18.39;42.51
63306;BME280;50735;52.060;1.248;2022-10-17T12:00:51;101585.27;;;18.58;42.83
63306;BME280;50735;52.060;1.248;2022-10-17T12:03:30;101586.98;;;18.92;42.68
63306;BME280;50735;52.060;1.248;2022-10-17T12:06:08;101590.78;;;18.63;42.65
63306;BME280;50735;52.060;1.248;2022-10-17T12:08:43;101596.07;;;18.81;42.00
63306;BME280;50735;52.060;1.248;2022-10-17T12:11:23;101597.20;;;18.80;42.46
63306;BME280;50735;52.060;1.248;2022-10-17T12:13:54;101597.68;;;18.90;42.79
63306;BME280;50735;52.060;1.248;2022-10-17T12:16:54;101605.64;;;18.47;42.03
63306;BME280;50735;52.060;1.248;2022-10-17T12:19:24;101608.32;;;17.96;43.08
63306;BME280;50735;52.060;1.248;2022-10-17T12:21:54;101610.41;;;18.24;43.89
63306;BME280;50735;52.060;1.248;2022-10-17T12:24:31;101617.24;;;17.98;42.57
63306;BME280;50735;52.060;1.248;2022-10-17T12:27:21;101616.97;;;17.66;42.84
63306;BME280;50735;52.060;1.248;2022-10-17T12:29:49;101627.49;;;17.26;42.52
63306;BME280;50735;52.060;1.248;2022-10-17T12:32:16;101631.55;;;17.54;42.89
63306;BME280;50735;52.060;1.248;2022-10-17T12:34:51;101616.47;;;17.47;41.49
63306;BME280;50735;52.060;1.248;2022-10-17T12:37:59;101629.47;;;17.72;41.74
63306;BME280;50735;52.060;1.248;2022-10-17T12:41:52;101629.25;;;17.82;41.48
63306;BME280;50735;52.060;1.248;2022-10-17T12:44:34;101635.34;;;17.63;41.83
63306;BME280;50735;52.060;1.248;2022-10-17T12:47:34;101626.30;;;17.93;40.94
63306;BME280;50735;52.060;1.248;2022-10-17T12:50:02;101639.67;;;17.56;40.01
63306;BME280;50735;52.060;1.248;2022-10-17T12:52:57;101635.37;;;17.80;40.41
63306;BME280;50735;52.060;1.248;2022-10-17T12:55:26;101631.91;;;17.52;40.66
63306;BME280;50735;52.060;1.248;2022-10-17T12:57:56;101625.98;;;17.67;40.81
63306;BME280;50735;52.060;1.248;2022-10-17T13:00:33;101630.57;;;17.40;40.86
63306;BME280;50735;52.060;1.248;2022-10-17T13:03:05;101636.31;;;16.92;40.25
63306;BME280;50735;52.060;1.248;2022-10-17T13:05:39;101633.23;;;17.01;40.71
63306;BME280;50735;52.060;1.248;2022-10-17T13:08:13;101637.25;;;17.28;40.37